Time;durP1;ratioP1;P1;durP2;ratioP2;P2;SDS_P1;SDS_P2;PMS_P1;PMS_P2;Temp;Humidity;BMP_temperature;BMP_pressure;BME280_temperature;BME280_humidity;BME280_pressure;Samples;Min_cycle;Max_cycle;Signal;HPM_P1;HPM_P2
2023/02/27 00:00:13;;;;;;;8.23;5.15;;;0.00;1.00;;;;;;5103559;28;20479;-64
2023/02/27 00:02:40;;;;;;;7.25;4.88;;;-0.10;1.00;;;;;;5101430;28;21013;-63
2023/02/27 00:05:07;;;;;;;9.02;5.00;;;-0.10;1.00;;;;;;5102828;28;20896;-64
2023/02/27 00:07:34;;;;;;;9.70;5.03;;;-0.20;6.10;;;;;;5099458;28;20398;-63
2023/02/27 00:10:00;;;;;;;7.00;5.30;;;-0.20;99.90;;;;;;5103446;28;20443;-62
2023/02/27 00:12:29;;;;;;;8.47;5.30;;;-0.30;99.90;;;;;;5105666;28;20421;-63
2023/02/27 00:14:56;;;;;;;6.35;5.45;;;-0.30;1.00;;;;;;5104247;28;20418;-63
2023/02/27 00:17:24;;;;;;;8.63;5.43;;;-0.30;99.90;;;;;;5106464;28;20407;-63
2023/02/27 00:19:51;;;;;;;8.55;5.43;;;-0.40;1.00;;;;;;5103858;28;20428;-64
2023/02/27 00:22:18;;;;;;;7.97;5.60;;;-0.40;1.00;;;;;;5103652;28;20920;-63
2023/02/27 00:24:44;;;;;;;8.53;5.70;;;-0.50;99.90;;;;;;5104010;28;20465;-63
2023/02/27 00:27:11;;;;;;;5.90;5.00;;;-0.60;99.90;;;;;;5104589;28;20410;-64
2023/02/27 00:29:39;;;;;;;7.45;5.30;;;-0.60;99.90;;;;;;5102543;28;20886;-63
2023/02/27 00:32:06;;;;;;;7.93;5.40;;;-0.70;99.90;;;;;;5104563;28;20457;-63
2023/02/27 00:34:33;;;;;;;8.70;5.40;;;-0.70;1.00;;;;;;5105219;28;20900;-63
2023/02/27 00:36:59;;;;;;;9.07;5.50;;;-0.70;1.00;;;;;;5098465;28;20406;-62
2023/02/27 00:39:26;;;;;;;7.32;5.55;;;-0.70;1.00;;;;;;5102984;28;20421;-63
2023/02/27 00:41:53;;;;;;;8.18;5.13;;;-0.70;1.00;;;;;;5106016;28;20429;-63
2023/02/27 00:44:20;;;;;;;9.93;5.80;;;-0.70;1.00;;;;;;5106294;28;20827;-63
2023/02/27 00:46:48;;;;;;;6.68;5.00;;;-0.70;1.00;;;;;;5102481;28;20418;-61
2023/02/27 00:49:14;;;;;;;6.80;5.18;;;-0.80;1.00;;;;;;5101060;28;20403;-63
2023/02/27 00:51:41;;;;;;;8.27;5.30;;;-0.80;1.00;;;;;;5102659;28;21751;-62
2023/02/27 00:54:08;;;;;;;8.15;5.93;;;-0.80;1.00;;;;;;5105055;28;20419;-62
2023/02/27 00:56:35;;;;;;;6.97;5.80;;;-0.90;1.00;;;;;;5103098;28;20437;-63
2023/02/27 00:59:03;;;;;;;7.28;5.65;;;-0.90;1.00;;;;;;5102011;28;20768;-63
2023/02/27 01:01:29;;;;;;;6.72;5.20;;;-0.80;1.00;;;;;;5098518;28;20417;-63
2023/02/27 01:03:57;;;;;;;8.60;5.55;;;-0.90;1.00;;;;;;5101541;28;20417;-63
2023/02/27 01:06:24;;;;;;;8.50;5.35;;;-0.90;1.00;;;;;;5104177;28;20408;-63
2023/02/27 01:08:51;;;;;;;10.45;6.13;;;-0.90;1.00;;;;;;5103042;28;20406;-63
2023/02/27 01:11:18;;;;;;;9.57;5.97;;;-0.90;1.00;;;;;;5101881;28;20460;-63
2023/02/27 01:13:45;;;;;;;9.02;6.00;;;-0.90;1.00;;;;;;5104035;28;20404;-63
2023/02/27 01:16:12;;;;;;;8.68;5.68;;;-0.90;1.00;;;;;;5103720;28;20630;-63
2023/02/27 01:18:39;;;;;;;8.48;5.53;;;-0.90;1.00;;;;;;5101740;28;20737;-63
2023/02/27 01:21:07;;;;;;;8.30;6.00;;;-0.90;1.00;;;;;;5104969;28;20429;-63
2023/02/27 01:23:34;;;;;;;7.95;5.95;;;-0.90;1.00;;;;;;5101882;28;20467;-63
2023/02/27 01:26:01;;;;;;;8.83;6.10;;;-0.90;1.00;;;;;;5103487;28;20413;-63
2023/02/27 01:28:27;;;;;;;6.95;5.75;;;-1.00;1.00;;;;;;5103740;28;20473;-63
2023/02/27 01:30:54;;;;;;;8.63;6.28;;;-1.10;1.00;;;;;;5101365;28;20467;-62
2023/02/27 01:33:21;;;;;;;8.73;6.15;;;-1.10;1.00;;;;;;5102654;28;20442;-62
2023/02/27 01:35:48;;;;;;;9.50;5.68;;;-1.10;1.00;;;;;;5103843;28;20453;-63
2023/02/27 01:38:16;;;;;;;8.75;6.32;;;-1.10;1.00;;;;;;5101609;28;20410;-63
2023/02/27 01:40:43;;;;;;;7.70;5.57;;;-1.00;1.00;;;;;;5101385;28;20421;-63
2023/02/27 01:43:15;;;;;;;8.57;5.80;;;-0.90;1.00;;;;;;5097854;28;20451;-63
2023/02/27 01:45:43;;;;;;;9.32;6.00;;;-0.80;1.00;;;;;;5101387;28;20429;-63
2023/02/27 01:48:16;;;;;;;9.02;5.97;;;-0.70;1.00;;;;;;5097834;28;20807;-63
2023/02/27 01:50:48;;;;;;;8.10;6.28;;;-0.60;1.00;;;;;;5098920;28;20501;-62
2023/02/27 01:53:18;;;;;;;9.35;6.00;;;-0.70;1.00;;;;;;5102282;28;20408;-63
2023/02/27 01:55:46;;;;;;;10.38;6.40;;;-0.90;1.00;;;;;;5103665;28;20408;-62
2023/02/27 01:58:14;;;;;;;9.57;6.00;;;-1.10;1.00;;;;;;5101830;28;20459;-63
2023/02/27 02:00:41;;;;;;;10.10;5.90;;;-1.20;1.00;;;;;;5101050;28;20472;-63
2023/02/27 02:03:18;;;;;;;10.80;6.47;;;-1.10;1.00;;;;;;5102725;28;20412;-63
2023/02/27 02:05:46;;;;;;;8.13;5.88;;;-0.90;1.00;;;;;;5103133;28;20454;-63
2023/02/27 02:08:17;;;;;;;7.43;5.75;;;-0.80;1.00;;;;;;5101855;28;20902;-63
2023/02/27 02:10:45;;;;;;;9.45;6.00;;;-0.60;1.00;;;;;;5101110;28;20793;-62
2023/02/27 02:13:12;;;;;;;11.50;6.57;;;-0.60;1.00;;;;;;5105895;28;20404;-63
2023/02/27 02:15:46;;;;;;;10.02;6.45;;;-0.60;1.00;;;;;;5125102;28;20408;-63
2023/02/27 02:18:21;;;;;;;8.77;5.80;;;-0.50;1.00;;;;;;5115066;28;20815;-63
2023/02/27 02:21:29;;;;;;;9.07;6.20;;;-0.50;1.00;;;;;;5091326;28;20421;-63
2023/02/27 02:24:23;;;;;;;12.05;6.38;;;-0.60;1.00;;;;;;5098665;28;20427;-63
2023/02/27 02:26:57;;;;;;;11.40;7.15;;;-0.80;1.00;;;;;;5099925;28;20419;-63
2023/02/27 02:30:18;;;;;;;11.40;6.50;;;-1.10;1.00;;;;;;5097143;28;20455;-63
2023/02/27 02:33:17;;;;;;;9.70;6.63;;;-1.10;1.00;;;;;;5067336;28;20825;-63
2023/02/27 02:36:19;;;;;;;10.93;6.22;;;-0.90;1.00;;;;;;5096645;28;20831;-62
2023/02/27 02:39:27;;;;;;;9.80;7.03;;;-0.80;1.00;;;;;;5098007;28;20410;-63
2023/02/27 02:42:02;;;;;;;10.30;6.30;;;-0.70;1.00;;;;;;5019902;28;20445;-63
2023/02/27 02:44:40;;;;;;;8.73;6.47;;;-0.70;1.00;;;;;;5089992;28;20425;-63
2023/02/27 02:47:16;;;;;;;10.02;6.50;;;-0.80;1.00;;;;;;5097199;28;20410;-63
2023/02/27 02:49:52;;;;;;;10.43;6.65;;;-1.20;1.00;;;;;;5099857;28;20413;-63
2023/02/27 02:52:27;;;;;;;10.93;6.97;;;-1.40;1.00;;;;;;5099838;28;20459;-63
2023/02/27 02:55:01;;;;;;;10.88;7.07;;;-1.50;1.00;;;;;;5096163;28;20490;-63
2023/02/27 02:57:34;;;;;;;10.85;7.13;;;-1.60;4.50;;;;;;5097322;28;20463;-63
2023/02/27 03:00:06;;;;;;;10.70;7.45;;;-1.70;13.80;;;;;;5102426;28;20479;-63
2023/02/27 03:02:36;;;;;;;10.47;6.70;;;-1.70;22.30;;;;;;5102430;28;20767;-63
2023/02/27 03:05:08;;;;;;;11.07;6.57;;;-1.50;22.80;;;;;;5107354;28;20399;-63
2023/02/27 03:07:39;;;;;;;11.45;6.55;;;-1.40;20.90;;;;;;5104834;28;20826;-63
2023/02/27 03:10:12;;;;;;;10.38;7.00;;;-1.40;19.70;;;;;;5102185;28;20413;-63
2023/02/27 03:12:42;;;;;;;10.35;7.22;;;-1.50;16.90;;;;;;5100857;28;20425;-63
2023/02/27 03:15:15;;;;;;;9.50;6.57;;;-1.40;16.10;;;;;;5096353;28;20482;-63
2023/02/27 03:17:47;;;;;;;10.88;6.57;;;-1.30;13.80;;;;;;5099454;28;20417;-63
2023/02/27 03:20:20;;;;;;;12.37;7.30;;;-1.40;9.90;;;;;;5097488;28;20480;-63
2023/02/27 03:22:50;;;;;;;11.07;7.35;;;-1.60;11.60;;;;;;5099312;28;20406;-63
2023/02/27 03:25:19;;;;;;;12.95;7.25;;;-1.60;15.20;;;;;;5100071;28;20763;-63
2023/02/27 03:27:53;;;;;;;9.60;6.35;;;-1.60;18.70;;;;;;5101648;28;20412;-63
2023/02/27 03:30:25;;;;;;;11.87;7.40;;;-1.70;21.90;;;;;;5101350;28;20457;-63
2023/02/27 03:32:57;;;;;;;9.65;6.93;;;-1.80;29.10;;;;;;5096981;28;20456;-63
2023/02/27 03:35:32;;;;;;;9.93;7.18;;;-1.80;36.00;;;;;;5099001;28;20459;-63
2023/02/27 03:38:06;;;;;;;8.52;6.22;;;-1.80;41.60;;;;;;5099496;28;20439;-62
2023/02/27 03:40:38;;;;;;;9.55;6.90;;;-1.80;45.50;;;;;;5096075;28;20471;-61
2023/02/27 03:43:17;;;;;;;8.63;6.70;;;-1.80;47.70;;;;;;5099201;28;20467;-62
2023/02/27 03:45:54;;;;;;;9.10;6.65;;;-1.80;45.80;;;;;;5099919;28;20642;-63
2023/02/27 03:48:21;;;;;;;9.43;6.97;;;-1.80;45.60;;;;;;5097392;28;20455;-63
2023/02/27 03:50:48;;;;;;;9.38;6.47;;;-1.70;43.20;;;;;;5099058;28;20463;-63
2023/02/27 03:53:25;;;;;;;10.02;6.22;;;-1.80;47.10;;;;;;5101090;28;20420;-63
2023/02/27 03:55:54;;;;;;;10.30;6.80;;;-1.80;50.60;;;;;;5101662;28;20415;-63
2023/02/27 03:58:21;;;;;;;10.43;6.30;;;-1.80;51.70;;;;;;5100560;28;20463;-62
2023/02/27 04:00:48;;;;;;;8.15;6.28;;;-1.60;51.10;;;;;;5098707;28;20426;-63
2023/02/27 04:03:15;;;;;;;7.90;5.82;;;-1.50;45.50;;;;;;5100726;28;20925;-63
2023/02/27 04:05:42;;;;;;;9.57;6.10;;;-1.40;40.00;;;;;;5101101;28;20408;-62
2023/02/27 04:08:31;;;;;;;11.80;6.18;;;-1.40;33.20;;;;;;5098711;28;20406;-62
2023/02/27 04:11:18;;;;;;;10.02;6.13;;;-1.30;28.20;;;;;;5096762;28;20394;-63
2023/02/27 04:13:58;;;;;;;11.10;6.85;;;-1.30;23.20;;;;;;5098103;28;20409;-62
2023/02/27 04:16:50;;;;;;;9.85;7.00;;;-1.50;17.70;;;;;;5096880;28;20413;-63
2023/02/27 04:19:32;;;;;;;8.70;6.43;;;-1.60;19.70;;;;;;5099811;28;20469;-63
2023/02/27 04:22:07;;;;;;;9.55;6.63;;;-1.60;21.20;;;;;;5092260;28;20535;-63
2023/02/27 04:24:42;;;;;;;9.15;6.15;;;-1.70;24.30;;;;;;5095279;28;20819;-62
2023/02/27 04:27:19;;;;;;;8.95;7.10;;;-1.70;30.10;;;;;;5094833;28;20425;-62
2023/02/27 04:29:55;;;;;;;8.38;6.45;;;-1.90;39.70;;;;;;5101412;28;20413;-63
2023/02/27 04:32:31;;;;;;;9.77;6.30;;;-1.90;51.80;;;;;;5100376;28;20412;-61
2023/02/27 04:35:01;;;;;;;11.88;6.85;;;-1.90;54.20;;;;;;5096080;28;20409;-63
2023/02/27 04:37:32;;;;;;;9.07;6.38;;;-2.00;57.20;;;;;;5098720;28;20405;-62
2023/02/27 04:40:04;;;;;;;11.35;6.90;;;-2.10;64.70;;;;;;5104604;28;20411;-63
2023/02/27 04:42:37;;;;;;;10.70;6.70;;;-2.20;73.00;;;;;;5104883;28;20495;-62
2023/02/27 04:45:08;;;;;;;7.00;5.75;;;-2.00;76.00;;;;;;5101369;28;20406;-63
2023/02/27 04:47:42;;;;;;;9.57;6.40;;;-1.80;69.80;;;;;;5098610;28;20784;-63
2023/02/27 04:50:14;;;;;;;10.60;7.10;;;-1.90;62.30;;;;;;5102491;28;20483;-63
2023/02/27 04:52:44;;;;;;;10.02;7.18;;;-2.00;62.30;;;;;;5102315;28;20414;-63
2023/02/27 04:55:16;;;;;;;10.75;7.57;;;-2.10;69.00;;;;;;5110179;28;20487;-63
2023/02/27 04:57:49;;;;;;;9.50;6.65;;;-2.10;76.10;;;;;;5113668;28;20453;-63
2023/02/27 05:00:18;;;;;;;12.70;7.05;;;-2.10;79.50;;;;;;5116179;28;20411;-63
2023/02/27 05:02:47;;;;;;;11.40;7.05;;;-2.10;80.50;;;;;;5113754;28;20406;-63
2023/02/27 05:05:18;;;;;;;12.73;7.53;;;-2.10;80.00;;;;;;5117835;28;20401;-63
2023/02/27 05:07:49;;;;;;;10.05;6.85;;;-2.10;78.30;;;;;;5106661;28;20472;-63
2023/02/27 05:10:26;;;;;;;8.82;7.00;;;-2.00;79.40;;;;;;5102558;28;20455;-63
2023/02/27 05:12:58;;;;;;;10.33;7.70;;;-2.00;73.20;;;;;;5102411;28;20416;-62
2023/02/27 05:15:29;;;;;;;9.90;7.00;;;-2.10;71.00;;;;;;5105295;28;20467;-63
2023/02/27 05:18:00;;;;;;;10.68;6.80;;;-2.00;71.90;;;;;;5098488;28;20408;-63
2023/02/27 05:20:32;;;;;;;10.80;6.80;;;-1.80;66.10;;;;;;5105840;28;20890;-61
2023/02/27 05:23:03;;;;;;;12.43;7.10;;;-1.70;60.90;;;;;;5102805;28;20451;-61
2023/02/27 05:25:35;;;;;;;12.55;7.18;;;-1.60;55.90;;;;;;5121508;28;20416;-61
2023/02/27 05:28:07;;;;;;;10.25;6.78;;;-1.50;49.40;;;;;;5118938;28;20432;-61
2023/02/27 05:30:37;;;;;;;9.70;6.85;;;-1.50;42.40;;;;;;5105023;28;20822;-62
2023/02/27 05:33:08;;;;;;;10.73;7.18;;;-1.40;34.60;;;;;;5101176;28;20892;-62
2023/02/27 05:35:45;;;;;;;11.25;6.68;;;-1.40;27.50;;;;;;5101340;28;20885;-61
2023/02/27 05:38:15;;;;;;;10.45;7.20;;;-1.40;21.80;;;;;;5101348;28;20405;-61
2023/02/27 05:40:46;;;;;;;10.57;6.65;;;-1.40;16.10;;;;;;5103242;28;20407;-62
2023/02/27 05:43:19;;;;;;;12.35;6.80;;;-1.40;10.70;;;;;;5099241;28;20873;-54
2023/02/27 05:45:49;;;;;;;11.07;6.60;;;-1.40;7.90;;;;;;5098971;28;20426;-56
2023/02/27 05:48:20;;;;;;;9.93;6.50;;;-1.40;5.30;;;;;;5099463;28;20412;-57
2023/02/27 05:50:49;;;;;;;;;;;-1.40;1.60;;;;;;5106913;28;20785;-58
2023/02/27 05:53:17;;;;;;;;;;;-1.40;1.00;;;;;;5099060;28;19924;-58
2023/02/27 05:55:47;;;;;;;;;;;-1.40;1.00;;;;;;5103595;28;19968;-59
2023/02/27 05:58:17;;;;;;;;;;;-1.50;1.00;;;;;;5102557;28;19966;-58
2023/02/27 06:00:45;;;;;;;;;;;-1.60;1.00;;;;;;5102881;28;19970;-59
2023/02/27 06:03:12;;;;;;;;;;;-1.70;1.00;;;;;;5105428;28;19919;-58
2023/02/27 06:05:40;;;;;;;;;;;-2.00;1.00;;;;;;5103338;28;19973;-56
2023/02/27 06:08:07;;;;;;;;;;;-2.00;13.70;;;;;;5102051;28;20032;-58
2023/02/27 06:10:34;;;;;;;;;;;-2.10;23.80;;;;;;5104017;28;19994;-58
2023/02/27 06:13:00;;;;;;;;;;;-2.30;41.60;;;;;;5103577;28;20419;-57
2023/02/27 06:15:28;;;;;;;;;;;-2.40;57.30;;;;;;5101478;28;20390;-58
2023/02/27 06:17:55;;;;;;;;;;;-2.40;68.30;;;;;;5103365;28;20015;-59
2023/02/27 06:20:21;;;;;;;;;;;-2.40;72.80;;;;;;5104397;28;20385;-59
2023/02/27 06:22:48;;;;;;;;;;;-2.50;78.40;;;;;;5102539;28;19919;-63
2023/02/27 06:25:14;;;;;;;;;;;-2.40;84.40;;;;;;5105725;28;19923;-62
2023/02/27 06:27:41;;;;;;;;;;;-2.30;87.10;;;;;;5101395;28;20448;-62
2023/02/27 06:30:09;;;;;;;;;;;-2.30;86.80;;;;;;5101505;28;19924;-61
2023/02/27 06:32:37;;;;;;;;;;;-2.20;86.50;;;;;;5103764;28;19919;-62
2023/02/27 06:35:04;;;;;;;;;;;-2.20;84.90;;;;;;5104491;28;19920;-62
2023/02/27 06:37:30;;;;;;;;;;;-2.20;86.20;;;;;;5101674;28;19973;-62
2023/02/27 06:39:57;;;;;;;;;;;-2.30;83.90;;;;;;5102399;28;19924;-61
2023/02/27 06:42:23;;;;;;;;;;;-2.20;88.70;;;;;;5102078;28;20366;-62
2023/02/27 06:44:50;;;;;;;;;;;-2.10;87.20;;;;;;5100287;28;19920;-60
2023/02/27 06:47:16;;;;;;;;;;;-2.00;83.50;;;;;;5101540;28;19974;-61
2023/02/27 06:49:44;;;;;;;;;;;-1.90;80.40;;;;;;5098145;28;19919;-60
2023/02/27 06:52:11;;;;;;;;;;;-1.80;77.10;;;;;;5101933;28;19964;-61
2023/02/27 06:54:37;;;;;;;;;;;-1.70;74.90;;;;;;5104079;28;20329;-61
2023/02/27 06:57:04;;;;;;;;;;;-1.70;71.70;;;;;;5089845;28;19928;-61
2023/02/27 06:59:30;;;;;;;;;;;-1.60;68.20;;;;;;5099446;28;19923;-61
2023/02/27 07:01:59;;;;;;;;;;;-1.50;66.10;;;;;;5100738;28;19920;-62
2023/02/27 07:04:25;;;;;;;;;;;-1.40;62.40;;;;;;5093333;28;20018;-61
2023/02/27 07:06:53;;;;;;;;;;;-1.50;58.70;;;;;;5102294;28;19924;-62
2023/02/27 07:09:20;;;;;;;;;;;-1.40;59.70;;;;;;5099541;28;19920;-61
2023/02/27 07:11:47;;;;;;;;;;;-1.80;64.90;;;;;;5096076;28;19927;-61
2023/02/27 07:14:15;;;;;;;;;;;-1.90;71.20;;;;;;5101478;28;19919;-62
2023/02/27 07:16:42;;;;;;;;;;;-2.00;83.10;;;;;;5097317;28;20382;-62
2023/02/27 07:19:08;;;;;;;;;;;-2.00;92.50;;;;;;5101289;28;20382;-62
2023/02/27 07:21:35;;;;;;;;;;;-1.90;96.20;;;;;;5101831;28;19920;-63
2023/02/27 07:24:03;;;;;;;;;;;-2.00;97.00;;;;;;5097896;28;19920;-62
2023/02/27 07:26:30;;;;;;;;;;;-1.90;98.70;;;;;;5100338;28;19923;-61
2023/02/27 07:28:59;;;;;;;;;;;-1.90;98.90;;;;;;5091274;28;19920;-62
2023/02/27 07:31:25;;;;;;;;;;;-1.80;98.90;;;;;;5100754;28;19924;-62
2023/02/27 07:33:52;;;;;;;;;;;-1.70;97.40;;;;;;5100271;28;20041;-62
2023/02/27 07:36:18;;;;;;;;;;;-1.70;93.80;;;;;;5101564;28;19965;-61
2023/02/27 07:38:45;;;;;;;;;;;-1.50;91.80;;;;;;5102106;28;20298;-61
2023/02/27 07:41:13;;;;;;;;;;;-1.40;86.00;;;;;;5103311;28;19920;-59
2023/02/27 07:43:39;;;;;;;;;;;-1.20;78.10;;;;;;5099907;28;19920;-58
2023/02/27 07:46:06;;;;;;;;;;;-1.10;66.70;;;;;;5103082;28;19978;-60
2023/02/27 07:48:33;;;;;;;;;;;-1.20;55.90;;;;;;5100846;28;20508;-62
2023/02/27 07:51:00;;;;;;;;;;;-1.20;45.50;;;;;;5094869;28;19920;-55
2023/02/27 07:53:26;;;;;;;;;;;-1.10;46.40;;;;;;5096416;28;19946;-62
2023/02/27 07:55:53;;;;;;;12.00;7.43;;;-1.00;36.50;;;;;;5094394;28;20417;-63
2023/02/27 07:58:21;;;;;;;;;;;-0.90;38.60;;;;;;5102758;28;20334;-64
2023/02/27 08:00:48;;;;;;;;;;;-0.90;32.00;;;;;;5102784;28;20318;-65
2023/02/27 08:03:14;;;;;;;;;;;-0.80;28.30;;;;;;5099869;28;20444;-65
2023/02/27 08:05:41;;;;;;;9.63;7.17;;;-0.80;16.20;;;;;;5100205;28;19947;-65
2023/02/27 08:08:08;;;;;;;;;;;-0.60;15.70;;;;;;5100522;28;20418;-66
2023/02/27 08:10:34;;;;;;;;;;;-0.50;12.30;;;;;;5102592;28;19942;-67
2023/02/27 08:13:01;;;;;;;;;;;-0.50;1.00;;;;;;5104897;28;20346;-67
2023/02/27 08:15:29;;;;;;;;;;;-0.40;1.00;;;;;;5104227;28;19920;-66
2023/02/27 08:17:56;;;;;;;;;;;-0.40;1.00;;;;;;5105757;28;19920;-66
2023/02/27 08:20:23;;;;;;;;;;;-0.30;1.00;;;;;;5106931;28;19919;-65
2023/02/27 08:22:49;;;;;;;;;;;-0.30;1.00;;;;;;5102926;28;19934;-67
2023/02/27 08:25:16;;;;;;;;;;;-0.30;1.00;;;;;;5104655;28;19935;-65
2023/02/27 08:27:43;;;;;;;;;;;-0.30;1.00;;;;;;5106115;28;19927;-66
2023/02/27 08:30:11;;;;;;;;;;;-0.20;1.00;;;;;;5104638;28;19966;-66
2023/02/27 08:32:39;;;;;;;;;;;-0.10;1.00;;;;;;5103758;28;19970;-66
2023/02/27 08:35:05;;;;;;;;;;;-0.10;1.00;;;;;;5102772;28;19924;-65
2023/02/27 08:37:32;;;;;;;;;;;0.00;1.00;;;;;;5105866;28;19920;-65
2023/02/27 08:39:58;;;;;;;;;;;0.20;1.00;;;;;;5109332;28;19965;-65
2023/02/27 08:42:25;;;;;;;;;;;0.10;1.00;;;;;;5117283;28;19920;-66
2023/02/27 08:44:52;;;;;;;;;;;0.30;1.00;;;;;;5114231;28;19936;-66
2023/02/27 08:47:19;;;;;;;9.23;5.57;;;0.50;1.00;;;;;;5095110;28;20254;-66
2023/02/27 08:49:47;;;;;;;9.65;5.60;;;0.60;1.00;;;;;;5103278;28;20416;-66
2023/02/27 08:52:13;;;;;;;8.50;4.88;;;0.70;1.00;;;;;;5102250;28;20464;-66
2023/02/27 08:54:40;;;;;;;7.72;4.70;;;0.80;1.00;;;;;;5103602;28;20414;-65
2023/02/27 08:57:07;;;;;;;8.80;5.00;;;0.90;1.00;;;;;;5101580;28;20406;-66
2023/02/27 08:59:34;;;;;;;9.13;5.45;;;0.90;1.00;;;;;;5101256;28;20896;-65
2023/02/27 09:02:00;;;;;;;8.35;5.43;;;1.00;1.00;;;;;;5101635;28;20470;-64
2023/02/27 09:04:27;;;;;;;9.53;5.33;;;1.10;1.00;;;;;;5103810;28;20415;-64
2023/02/27 09:06:56;;;;;;;9.88;5.63;;;1.30;1.00;;;;;;5101810;28;20463;-63
2023/02/27 09:09:23;;;;;;;7.90;4.55;;;1.40;1.00;;;;;;5101026;28;20915;-67
2023/02/27 09:11:50;;;;;;;8.63;5.18;;;1.40;99.90;;;;;;5103058;28;20504;-67
2023/02/27 09:14:17;;;;;;;8.60;5.28;;;1.30;99.90;;;;;;5103294;28;20407;-66
2023/02/27 09:16:44;;;;;;;6.72;4.32;;;1.30;99.90;;;;;;5100816;28;20471;-64
2023/02/27 09:19:13;;;;;;;7.30;4.50;;;1.40;99.90;;;;;;5102901;28;20404;-68
2023/02/27 09:21:40;;;;;;;7.35;3.65;;;1.50;99.90;;;;;;5099196;28;20473;-67
2023/02/27 09:24:08;;;;;;;8.77;4.30;;;1.50;99.90;;;;;;5101819;28;20416;-65
2023/02/27 09:26:36;;;;;;;6.43;4.38;;;1.60;99.90;;;;;;5107621;28;20420;-66
2023/02/27 09:29:02;;;;;;;7.78;4.00;;;1.60;99.90;;;;;;5099429;28;20422;-65
2023/02/27 09:31:29;;;;;;;5.80;3.72;;;1.70;99.90;;;;;;5103752;28;20417;-66
2023/02/27 09:33:56;;;;;;;8.77;3.80;;;1.90;99.90;;;;;;5098422;28;20866;-68
2023/02/27 09:36:23;;;;;;;5.10;3.55;;;1.80;99.90;;;;;;5102015;28;20495;-68
2023/02/27 09:38:50;;;;;;;4.72;2.90;;;1.90;99.90;;;;;;5103057;28;20400;-67
2023/02/27 09:41:42;;;;;;;6.35;2.90;;;2.00;99.90;;;;;;5101494;28;20421;-67
2023/02/27 09:44:26;;;;;;;5.57;3.22;;;2.00;34.80;;;;;;5097843;28;20469;-70
2023/02/27 09:46:54;;;;;;;7.57;3.28;;;2.00;34.70;;;;;;5098863;28;20490;-66
2023/02/27 09:49:24;;;;;;;5.97;3.22;;;2.10;99.90;;;;;;5099738;28;20763;-66
2023/02/27 09:51:53;;;;;;;7.70;3.60;;;2.20;1.00;;;;;;5100848;28;20435;-65
2023/02/27 09:54:20;;;;;;;8.52;3.58;;;2.20;1.00;;;;;;5099916;28;20930;-66
2023/02/27 09:57:00;;;;;;;7.78;2.90;;;2.30;51.40;;;;;;5100922;28;20891;-67
2023/02/27 09:59:37;;;;;;;8.20;3.53;;;3.60;1.00;;;;;;5096504;28;20446;-67
2023/02/27 10:02:21;;;;;;;5.32;3.15;;;2.80;99.90;;;;;;5104899;28;20934;-66
2023/02/27 10:04:53;;;;;;;6.55;2.90;;;3.00;1.00;;;;;;5097061;28;20765;-65
2023/02/27 10:07:29;;;;;;;4.78;3.10;;;3.10;1.00;;;;;;5100258;28;20413;-64
2023/02/27 10:10:06;;;;;;;7.90;2.77;;;3.30;99.90;;;;;;5096749;28;20756;-65
2023/02/27 10:12:54;;;;;;;4.10;2.50;;;3.10;99.90;;;;;;5097693;28;20410;-67
2023/02/27 10:15:25;;;;;;;6.80;2.63;;;3.10;99.90;;;;;;5104488;28;20415;-66
2023/02/27 10:17:58;;;;;;;4.93;2.70;;;3.40;99.90;;;;;;5096094;28;20421;-65
2023/02/27 10:20:28;;;;;;;6.55;2.60;;;3.60;89.50;;;;;;5095431;28;20420;-64
2023/02/27 10:22:59;;;;;;;4.13;2.80;;;3.90;1.00;;;;;;5088222;28;20422;-63
2023/02/27 10:25:26;;;;;;;5.25;2.70;;;3.60;29.20;;;;;;5094833;28;20637;-63
2023/02/27 10:27:58;;;;;;;6.05;3.35;;;3.60;1.00;;;;;;5094418;28;20797;-62
2023/02/27 10:30:28;;;;;;;7.13;3.17;;;3.60;99.90;;;;;;5101867;28;20415;-64
2023/02/27 10:32:58;;;;;;;7.85;2.60;;;3.80;99.90;;;;;;5096469;28;20421;-64
2023/02/27 10:35:32;;;;;;;8.48;3.10;;;4.10;99.90;;;;;;5099847;28;20414;-64
2023/02/27 10:38:02;;;;;;;4.40;2.15;;;4.20;59.30;;;;;;5097402;28;20873;-65
2023/02/27 10:40:30;;;;;;;6.15;2.22;;;4.20;99.90;;;;;;5096927;28;20792;-64
2023/02/27 10:43:00;;;;;;;5.47;2.30;;;4.30;99.90;;;;;;5100029;28;20519;-65
2023/02/27 10:45:27;;;;;;;5.47;2.30;;;4.40;99.90;;;;;;5099492;28;20454;-62
2023/02/27 10:47:54;;;;;;;5.43;2.40;;;4.20;99.90;;;;;;5107535;28;20411;-63
2023/02/27 10:50:27;;;;;;;4.05;2.20;;;4.20;99.90;;;;;;5102940;28;20457;-66
2023/02/27 10:53:00;;;;;;;8.15;2.20;;;3.90;99.90;;;;;;5092225;28;20436;-65
2023/02/27 10:55:29;;;;;;;3.88;2.40;;;4.00;99.90;;;;;;5103801;28;20923;-65
2023/02/27 10:57:59;;;;;;;4.47;2.40;;;4.10;99.90;;;;;;5104065;28;20885;-63
2023/02/27 11:00:45;;;;;;;11.93;4.63;;;3.90;99.90;;;;;;5106991;28;20465;-62
2023/02/27 11:03:20;;;;;;;4.75;2.30;;;4.00;99.90;;;;;;5096172;28;20432;-64
2023/02/27 11:05:57;;;;;;;6.28;2.95;;;3.80;99.90;;;;;;5098772;28;21368;-63
2023/02/27 11:08:26;;;;;;;6.43;3.23;;;3.50;99.90;;;;;;5102013;28;21027;-63
2023/02/27 11:10:56;;;;;;;6.23;3.20;;;3.30;99.90;;;;;;5112313;28;20488;-62
2023/02/27 11:13:27;;;;;;;6.93;3.13;;;3.30;99.90;;;;;;5114445;28;20436;-62
2023/02/27 11:16:15;;;;;;;5.80;3.35;;;3.40;99.90;;;;;;5115465;28;20408;-62
2023/02/27 11:18:43;;;;;;;7.07;3.00;;;3.50;99.90;;;;;;5111160;28;20453;-62
2023/02/27 11:21:18;;;;;;;5.45;2.85;;;3.50;99.90;;;;;;5106966;28;20408;-60
2023/02/27 11:24:10;;;;;;;26.55;5.50;;;3.50;99.90;;;;;;5098701;28;20948;-59
2023/02/27 11:26:39;;;;;;;6.88;2.90;;;3.70;99.90;;;;;;5095216;28;20412;-60
2023/02/27 11:29:13;;;;;;;6.65;3.20;;;3.90;99.90;;;;;;5097749;28;20412;-65
2023/02/27 11:31:45;;;;;;;5.25;2.83;;;3.80;99.90;;;;;;5097853;28;20952;-63
2023/02/27 11:34:20;;;;;;;5.70;2.80;;;3.70;99.90;;;;;;5100584;28;20406;-64
2023/02/27 11:36:49;;;;;;;5.15;2.85;;;3.80;99.90;;;;;;5096107;28;20884;-64
2023/02/27 11:39:25;;;;;;;6.03;2.80;;;4.10;99.90;;;;;;5101468;28;20413;-64
2023/02/27 11:41:52;;;;;;;7.85;3.50;;;3.90;1.00;;;;;;5098125;28;20410;-64
2023/02/27 11:44:26;;;;;;;8.13;3.78;;;3.70;16.10;;;;;;5098460;28;20420;-65
2023/02/27 11:47:07;;;;;;;3.38;1.85;;;3.70;57.90;;;;;;5099476;28;20776;-63
2023/02/27 11:49:38;;;;;;;5.05;3.20;;;3.70;1.00;;;;;;5095872;28;20408;-64
2023/02/27 11:52:11;;;;;;;6.32;2.90;;;3.90;99.90;;;;;;5104453;28;20408;-63
2023/02/27 11:54:41;;;;;;;6.95;2.88;;;4.30;95.70;;;;;;5104324;28;20417;-63
2023/02/27 11:57:20;;;;;;;4.03;2.92;;;4.70;23.00;;;;;;5116619;28;20420;-65
2023/02/27 11:59:54;;;;;;;5.10;2.72;;;4.70;1.00;;;;;;5124272;28;20411;-65
2023/02/27 12:02:28;;;;;;;6.10;2.85;;;4.70;1.00;;;;;;5116167;28;20433;-64
2023/02/27 12:04:59;;;;;;;5.65;2.50;;;4.90;1.00;;;;;;5103009;28;20922;-63
2023/02/27 12:07:32;;;;;;;5.82;2.40;;;5.20;1.00;;;;;;5102115;28;20422;-65
2023/02/27 12:10:04;;;;;;;4.53;2.35;;;5.30;1.00;;;;;;5101972;28;20453;-66
2023/02/27 12:12:39;;;;;;;4.82;2.80;;;5.10;1.00;;;;;;5102476;28;20468;-63
2023/02/27 12:15:19;;;;;;;6.60;2.85;;;5.20;1.00;;;;;;5103267;28;20459;-63
2023/02/27 12:17:50;;;;;;;6.35;2.60;;;5.30;1.00;;;;;;5101314;28;20818;-63
2023/02/27 12:20:29;;;;;;;7.68;2.83;;;5.60;1.00;;;;;;5102880;28;20413;-63
2023/02/27 12:22:56;;;;;;;5.40;2.60;;;5.60;1.00;;;;;;5101272;28;20758;-63
2023/02/27 12:25:39;;;;;;;5.65;2.30;;;5.50;99.90;;;;;;5103484;28;20414;-67
2023/02/27 12:28:33;;;;;;;3.65;1.75;;;5.30;99.90;;;;;;5099614;28;20405;-63
2023/02/27 12:31:20;;;;;;;4.30;2.40;;;5.10;99.90;;;;;;5099573;28;20499;-63
2023/02/27 12:33:53;;;;;;;4.28;2.40;;;4.90;99.90;;;;;;5103580;28;20408;-62
2023/02/27 12:36:20;;;;;;;5.82;2.53;;;4.90;99.90;;;;;;5091211;28;21858;-63
2023/02/27 12:38:47;;;;;;;4.05;1.90;;;4.70;99.90;;;;;;5093850;28;20417;-63
2023/02/27 12:41:32;;;;;;;4.15;2.30;;;4.80;99.90;;;;;;5103766;28;20919;-64
2023/02/27 12:44:26;;;;;;;6.05;2.10;;;4.60;99.90;;;;;;5089146;28;20425;-63
2023/02/27 12:47:02;;;;;;;4.30;2.00;;;4.50;99.90;;;;;;5092663;28;20416;-63
2023/02/27 12:49:38;;;;;;;7.55;3.85;;;4.20;99.90;;;;;;5099710;28;20921;-64
2023/02/27 12:52:17;;;;;;;4.70;2.80;;;4.10;99.90;;;;;;5102347;28;20459;-64
2023/02/27 12:54:54;;;;;;;4.97;2.40;;;4.20;99.90;;;;;;5100711;28;20398;-65
2023/02/27 12:57:32;;;;;;;3.78;2.00;;;4.30;99.90;;;;;;5103889;28;20411;-64
2023/02/27 13:00:14;;;;;;;4.65;1.90;;;4.40;99.90;;;;;;5101469;28;20919;-65
2023/02/27 13:02:56;;;;;;;3.40;2.00;;;4.90;99.90;;;;;;5099744;28;20461;-65
2023/02/27 13:05:44;;;;;;;4.25;2.20;;;5.10;99.90;;;;;;5104135;28;20408;-67
2023/02/27 13:08:23;;;;;;;4.15;2.35;;;5.20;99.90;;;;;;5091179;28;20409;-63
2023/02/27 13:10:56;;;;;;;5.72;2.60;;;5.30;99.90;;;;;;5101717;28;20435;-64
2023/02/27 13:13:30;;;;;;;6.88;2.15;;;5.30;99.90;;;;;;5105024;28;20859;-65
2023/02/27 13:16:01;;;;;;;3.67;2.33;;;4.90;99.90;;;;;;5101637;28;20409;-67
2023/02/27 13:18:35;;;;;;;4.50;2.60;;;4.70;99.90;;;;;;5101560;28;20418;-65
2023/02/27 13:21:11;;;;;;;5.82;2.38;;;4.90;99.90;;;;;;5102176;28;20463;-66
2023/02/27 13:23:48;;;;;;;6.70;2.90;;;5.00;99.90;;;;;;5100929;28;20575;-65
2023/02/27 13:26:22;;;;;;;4.10;2.60;;;4.90;99.90;;;;;;5100949;28;20420;-68
2023/02/27 13:28:50;;;;;;;5.13;3.13;;;5.10;99.90;;;;;;5101492;28;20409;-67
2023/02/27 13:31:26;;;;;;;3.53;2.60;;;5.30;99.90;;;;;;5100932;28;20904;-67